sensor_id;sensor_type;location;lat;lon;timestamp;P1;durP1;ratioP1;P2;durP2;ratioP2
85293;SDS011;76388;43.958;2.882;2024-03-23T00:56:23;8.15;;;3.47;;
85293;SDS011;76388;43.958;2.882;2024-03-23T00:58:49;8.80;;;2.95;;
85293;SDS011;76388;43.958;2.882;2024-03-23T01:01:15;7.47;;;2.95;;
85293;SDS011;76388;43.958;2.882;2024-03-23T01:03:41;8.43;;;3.10;;
85293;SDS011;76388;43.958;2.882;2024-03-23T01:06:08;8.55;;;3.20;;
85293;SDS011;76388;43.958;2.882;2024-03-23T01:08:34;7.30;;;3.17;;
85293;SDS011;76388;43.958;2.882;2024-03-23T01:11:00;7.25;;;3.13;;
85293;SDS011;76388;43.958;2.882;2024-03-23T01:13:28;6.38;;;3.13;;
85293;SDS011;76388;43.958;2.882;2024-03-23T01:15:55;7.30;;;3.03;;
85293;SDS011;76388;43.958;2.882;2024-03-23T01:18:22;7.95;;;3.10;;
85293;SDS011;76388;43.958;2.882;2024-03-23T01:20:49;10.82;;;3.42;;
85293;SDS011;76388;43.958;2.882;2024-03-23T01:23:15;7.63;;;2.90;;
85293;SDS011;76388;43.958;2.882;2024-03-23T01:25:41;9.65;;;2.78;;
85293;SDS011;76388;43.958;2.882;2024-03-23T01:28:07;9.95;;;2.85;;
85293;SDS011;76388;43.958;2.882;2024-03-23T01:30:34;9.27;;;2.70;;
85293;SDS011;76388;43.958;2.882;2024-03-23T01:33:01;7.32;;;2.65;;
85293;SDS011;76388;43.958;2.882;2024-03-23T01:35:29;9.20;;;2.90;;
85293;SDS011;76388;43.958;2.882;2024-03-23T01:37:55;8.95;;;3.20;;
85293;SDS011;76388;43.958;2.882;2024-03-23T01:40:21;7.22;;;2.78;;
85293;SDS011;76388;43.958;2.882;2024-03-23T01:42:58;6.25;;;2.92;;
85293;SDS011;76388;43.958;2.882;2024-03-23T01:45:27;7.57;;;2.78;;
85293;SDS011;76388;43.958;2.882;2024-03-23T01:47:53;7.57;;;2.58;;
85293;SDS011;76388;43.958;2.882;2024-03-23T01:50:20;8.18;;;2.58;;
85293;SDS011;76388;43.958;2.882;2024-03-23T01:52:46;5.68;;;2.60;;
85293;SDS011;76388;43.958;2.882;2024-03-23T01:55:13;8.15;;;3.03;;
85293;SDS011;76388;43.958;2.882;2024-03-23T01:57:39;6.82;;;2.53;;
85293;SDS011;76388;43.958;2.882;2024-03-23T02:00:05;6.25;;;2.95;;
85293;SDS011;76388;43.958;2.882;2024-03-23T02:02:32;9.13;;;3.17;;
85293;SDS011;76388;43.958;2.882;2024-03-23T02:04:58;8.63;;;2.95;;
85293;SDS011;76388;43.958;2.882;2024-03-23T02:07:24;7.25;;;2.92;;
85293;SDS011;76388;43.958;2.882;2024-03-23T02:09:51;7.82;;;2.97;;
85293;SDS011;76388;43.958;2.882;2024-03-23T02:12:17;8.35;;;2.95;;
85293;SDS011;76388;43.958;2.882;2024-03-23T02:14:44;5.82;;;2.70;;
85293;SDS011;76388;43.958;2.882;2024-03-23T02:17:10;10.07;;;3.50;;
85293;SDS011;76388;43.958;2.882;2024-03-23T02:19:36;8.05;;;3.17;;
85293;SDS011;76388;43.958;2.882;2024-03-23T02:22:02;7.03;;;2.85;;
85293;SDS011;76388;43.958;2.882;2024-03-23T02:24:29;6.22;;;2.88;;
85293;SDS011;76388;43.958;2.882;2024-03-23T02:26:55;8.25;;;2.88;;
85293;SDS011;76388;43.958;2.882;2024-03-23T02:29:21;7.07;;;3.17;;
85293;SDS011;76388;43.958;2.882;2024-03-23T02:31:47;7.93;;;3.25;;
85293;SDS011;76388;43.958;2.882;2024-03-23T02:34:13;9.05;;;3.50;;
85293;SDS011;76388;43.958;2.882;2024-03-23T02:36:39;8.98;;;3.53;;
85293;SDS011;76388;43.958;2.882;2024-03-23T02:39:05;9.98;;;3.08;;
85293;SDS011;76388;43.958;2.882;2024-03-23T02:41:32;6.32;;;2.90;;
85293;SDS011;76388;43.958;2.882;2024-03-23T02:43:58;9.10;;;3.30;;
85293;SDS011;76388;43.958;2.882;2024-03-23T02:46:24;10.40;;;3.42;;
85293;SDS011;76388;43.958;2.882;2024-03-23T02:48:50;9.77;;;3.63;;
85293;SDS011;76388;43.958;2.882;2024-03-23T02:51:16;7.32;;;3.00;;
85293;SDS011;76388;43.958;2.882;2024-03-23T02:53:42;9.57;;;3.22;;
85293;SDS011;76388;43.958;2.882;2024-03-23T02:56:08;8.85;;;3.33;;
85293;SDS011;76388;43.958;2.882;2024-03-23T02:58:34;9.57;;;3.35;;
85293;SDS011;76388;43.958;2.882;2024-03-23T03:01:00;11.10;;;3.13;;
85293;SDS011;76388;43.958;2.882;2024-03-23T03:03:26;7.47;;;3.58;;
85293;SDS011;76388;43.958;2.882;2024-03-23T03:05:56;8.65;;;3.70;;
85293;SDS011;76388;43.958;2.882;2024-03-23T03:08:22;8.02;;;3.40;;
85293;SDS011;76388;43.958;2.882;2024-03-23T03:10:48;8.25;;;3.15;;
85293;SDS011;76388;43.958;2.882;2024-03-23T03:13:14;9.85;;;3.55;;
85293;SDS011;76388;43.958;2.882;2024-03-23T03:15:41;8.00;;;3.47;;
85293;SDS011;76388;43.958;2.882;2024-03-23T03:18:08;10.48;;;3.03;;
85293;SDS011;76388;43.958;2.882;2024-03-23T03:20:38;9.80;;;3.40;;
85293;SDS011;76388;43.958;2.882;2024-03-23T03:23:05;8.02;;;3.20;;
85293;SDS011;76388;43.958;2.882;2024-03-23T03:25:31;8.25;;;3.10;;
85293;SDS011;76388;43.958;2.882;2024-03-23T03:27:57;8.45;;;3.50;;
85293;SDS011;76388;43.958;2.882;2024-03-23T03:30:23;8.43;;;3.63;;
85293;SDS011;76388;43.958;2.882;2024-03-23T03:32:51;7.90;;;3.08;;
85293;SDS011;76388;43.958;2.882;2024-03-23T03:35:18;9.02;;;3.58;;
85293;SDS011;76388;43.958;2.882;2024-03-23T03:37:44;7.10;;;3.30;;
85293;SDS011;76388;43.958;2.882;2024-03-23T03:40:11;10.32;;;3.70;;
85293;SDS011;76388;43.958;2.882;2024-03-23T03:42:37;9.95;;;3.15;;
85293;SDS011;76388;43.958;2.882;2024-03-23T03:45:04;8.25;;;3.38;;
85293;SDS011;76388;43.958;2.882;2024-03-23T03:47:31;7.47;;;3.38;;
85293;SDS011;76388;43.958;2.882;2024-03-23T03:49:57;9.38;;;3.70;;
85293;SDS011;76388;43.958;2.882;2024-03-23T03:52:23;9.57;;;3.72;;
85293;SDS011;76388;43.958;2.882;2024-03-23T03:54:49;9.80;;;3.33;;
85293;SDS011;76388;43.958;2.882;2024-03-23T03:57:15;8.00;;;3.53;;
85293;SDS011;76388;43.958;2.882;2024-03-23T03:59:41;8.18;;;3.35;;
85293;SDS011;76388;43.958;2.882;2024-03-23T04:02:07;8.77;;;3.40;;
85293;SDS011;76388;43.958;2.882;2024-03-23T04:04:33;10.63;;;4.18;;
85293;SDS011;76388;43.958;2.882;2024-03-23T04:07:00;9.20;;;3.83;;
85293;SDS011;76388;43.958;2.882;2024-03-23T04:09:26;10.95;;;4.50;;
85293;SDS011;76388;43.958;2.882;2024-03-23T04:11:53;10.70;;;3.70;;
85293;SDS011;76388;43.958;2.882;2024-03-23T04:14:19;9.90;;;4.00;;
85293;SDS011;76388;43.958;2.882;2024-03-23T04:16:45;8.23;;;3.80;;
85293;SDS011;76388;43.958;2.882;2024-03-23T04:19:11;9.02;;;4.07;;
85293;SDS011;76388;43.958;2.882;2024-03-23T04:21:37;13.02;;;4.15;;
85293;SDS011;76388;43.958;2.882;2024-03-23T04:24:04;8.20;;;3.72;;
85293;SDS011;76388;43.958;2.882;2024-03-23T04:26:40;10.77;;;3.95;;
85293;SDS011;76388;43.958;2.882;2024-03-23T04:29:07;9.80;;;4.38;;
85293;SDS011;76388;43.958;2.882;2024-03-23T04:31:33;10.55;;;4.15;;
85293;SDS011;76388;43.958;2.882;2024-03-23T04:34:01;8.88;;;4.47;;
85293;SDS011;76388;43.958;2.882;2024-03-23T04:36:27;9.25;;;4.28;;
85293;SDS011;76388;43.958;2.882;2024-03-23T04:38:53;9.15;;;3.80;;
85293;SDS011;76388;43.958;2.882;2024-03-23T04:41:20;9.05;;;4.00;;
85293;SDS011;76388;43.958;2.882;2024-03-23T04:43:46;9.52;;;4.35;;
85293;SDS011;76388;43.958;2.882;2024-03-23T04:46:12;8.40;;;4.13;;
85293;SDS011;76388;43.958;2.882;2024-03-23T04:48:38;10.68;;;4.97;;
85293;SDS011;76388;43.958;2.882;2024-03-23T04:51:04;10.15;;;4.53;;
85293;SDS011;76388;43.958;2.882;2024-03-23T04:53:30;10.00;;;4.40;;
85293;SDS011;76388;43.958;2.882;2024-03-23T04:55:56;8.13;;;3.90;;
85293;SDS011;76388;43.958;2.882;2024-03-23T04:58:24;7.07;;;3.70;;
85293;SDS011;76388;43.958;2.882;2024-03-23T05:00:54;7.68;;;3.90;;
85293;SDS011;76388;43.958;2.882;2024-03-23T05:03:20;7.82;;;3.65;;
85293;SDS011;76388;43.958;2.882;2024-03-23T05:05:47;7.13;;;3.33;;
85293;SDS011;76388;43.958;2.882;2024-03-23T05:08:14;7.50;;;3.25;;
85293;SDS011;76388;43.958;2.882;2024-03-23T05:10:41;7.18;;;3.15;;
85293;SDS011;76388;43.958;2.882;2024-03-23T05:13:08;7.95;;;3.08;;
85293;SDS011;76388;43.958;2.882;2024-03-23T05:15:34;8.98;;;3.15;;
85293;SDS011;76388;43.958;2.882;2024-03-23T05:18:00;7.85;;;3.15;;
85293;SDS011;76388;43.958;2.882;2024-03-23T05:20:26;8.60;;;2.80;;
85293;SDS011;76388;43.958;2.882;2024-03-23T05:22:54;6.95;;;3.05;;
85293;SDS011;76388;43.958;2.882;2024-03-23T05:25:20;7.03;;;2.70;;
85293;SDS011;76388;43.958;2.882;2024-03-23T05:27:47;5.88;;;2.70;;
85293;SDS011;76388;43.958;2.882;2024-03-23T05:30:13;7.35;;;2.80;;
85293;SDS011;76388;43.958;2.882;2024-03-23T05:32:39;8.52;;;3.00;;
85293;SDS011;76388;43.958;2.882;2024-03-23T05:35:08;6.80;;;3.10;;
85293;SDS011;76388;43.958;2.882;2024-03-23T05:37:34;7.00;;;2.47;;
85293;SDS011;76388;43.958;2.882;2024-03-23T05:40:02;6.75;;;2.63;;
85293;SDS011;76388;43.958;2.882;2024-03-23T05:42:29;8.57;;;3.08;;
85293;SDS011;76388;43.958;2.882;2024-03-23T05:44:55;5.32;;;3.05;;
85293;SDS011;76388;43.958;2.882;2024-03-23T05:47:21;5.55;;;2.72;;
85293;SDS011;76388;43.958;2.882;2024-03-23T05:49:47;6.10;;;2.95;;
85293;SDS011;76388;43.958;2.882;2024-03-23T05:52:14;7.10;;;3.17;;
85293;SDS011;76388;43.958;2.882;2024-03-23T05:54:40;7.13;;;3.05;;
85293;SDS011;76388;43.958;2.882;2024-03-23T05:57:08;6.75;;;3.33;;
85293;SDS011;76388;43.958;2.882;2024-03-23T05:59:34;6.93;;;3.20;;
85293;SDS011;76388;43.958;2.882;2024-03-23T06:02:00;6.70;;;3.03;;
85293;SDS011;76388;43.958;2.882;2024-03-23T06:04:27;6.80;;;3.00;;
85293;SDS011;76388;43.958;2.882;2024-03-23T06:06:53;6.88;;;3.42;;
85293;SDS011;76388;43.958;2.882;2024-03-23T06:09:19;11.45;;;3.70;;
85293;SDS011;76388;43.958;2.882;2024-03-23T06:11:45;8.70;;;3.55;;
85293;SDS011;76388;43.958;2.882;2024-03-23T06:14:11;7.60;;;3.22;;
85293;SDS011;76388;43.958;2.882;2024-03-23T06:16:37;8.98;;;3.35;;
85293;SDS011;76388;43.958;2.882;2024-03-23T06:19:03;6.10;;;3.10;;
85293;SDS011;76388;43.958;2.882;2024-03-23T06:21:32;7.00;;;3.38;;
85293;SDS011;76388;43.958;2.882;2024-03-23T06:23:58;7.47;;;3.05;;
85293;SDS011;76388;43.958;2.882;2024-03-23T06:26:24;8.07;;;3.45;;
85293;SDS011;76388;43.958;2.882;2024-03-23T06:28:51;6.45;;;3.00;;
85293;SDS011;76388;43.958;2.882;2024-03-23T06:31:17;6.25;;;3.28;;
85293;SDS011;76388;43.958;2.882;2024-03-23T06:33:43;7.35;;;3.47;;
85293;SDS011;76388;43.958;2.882;2024-03-23T06:36:10;6.95;;;3.45;;
85293;SDS011;76388;43.958;2.882;2024-03-23T06:38:39;8.48;;;3.25;;
85293;SDS011;76388;43.958;2.882;2024-03-23T06:41:05;5.90;;;3.35;;
85293;SDS011;76388;43.958;2.882;2024-03-23T06:43:31;6.45;;;2.97;;
85293;SDS011;76388;43.958;2.882;2024-03-23T06:45:57;7.10;;;3.22;;
85293;SDS011;76388;43.958;2.882;2024-03-23T06:48:24;7.28;;;3.22;;
85293;SDS011;76388;43.958;2.882;2024-03-23T06:50:54;8.43;;;3.00;;
85293;SDS011;76388;43.958;2.882;2024-03-23T06:53:21;8.05;;;3.17;;
85293;SDS011;76388;43.958;2.882;2024-03-23T06:55:50;8.57;;;3.22;;
85293;SDS011;76388;43.958;2.882;2024-03-23T06:58:19;6.97;;;3.10;;
85293;SDS011;76388;43.958;2.882;2024-03-23T07:00:45;6.07;;;2.90;;
85293;SDS011;76388;43.958;2.882;2024-03-23T07:03:11;6.40;;;3.13;;
85293;SDS011;76388;43.958;2.882;2024-03-23T07:05:38;5.70;;;2.70;;
85293;SDS011;76388;43.958;2.882;2024-03-23T07:08:04;5.75;;;2.67;;
85293;SDS011;76388;43.958;2.882;2024-03-23T07:10:30;5.70;;;2.80;;
85293;SDS011;76388;43.958;2.882;2024-03-23T07:12:56;6.35;;;2.38;;
85293;SDS011;76388;43.958;2.882;2024-03-23T07:15:23;5.20;;;2.20;;
85293;SDS011;76388;43.958;2.882;2024-03-23T07:17:49;5.72;;;2.22;;
85293;SDS011;76388;43.958;2.882;2024-03-23T07:20:15;5.03;;;2.17;;
85293;SDS011;76388;43.958;2.882;2024-03-23T07:22:41;4.47;;;2.08;;
85293;SDS011;76388;43.958;2.882;2024-03-23T07:25:07;4.82;;;2.10;;
85293;SDS011;76388;43.958;2.882;2024-03-23T07:27:34;5.32;;;2.05;;
85293;SDS011;76388;43.958;2.882;2024-03-23T07:30:00;5.78;;;2.10;;
85293;SDS011;76388;43.958;2.882;2024-03-23T07:32:26;5.13;;;2.10;;
85293;SDS011;76388;43.958;2.882;2024-03-23T07:34:53;5.22;;;2.20;;
85293;SDS011;76388;43.958;2.882;2024-03-23T07:37:19;5.07;;;1.80;;
85293;SDS011;76388;43.958;2.882;2024-03-23T07:39:45;3.92;;;1.90;;
85293;SDS011;76388;43.958;2.882;2024-03-23T07:42:11;5.63;;;2.10;;
85293;SDS011;76388;43.958;2.882;2024-03-23T07:44:37;5.40;;;1.90;;
85293;SDS011;76388;43.958;2.882;2024-03-23T07:47:03;5.85;;;2.10;;
85293;SDS011;76388;43.958;2.882;2024-03-23T07:49:29;3.53;;;1.60;;
85293;SDS011;76388;43.958;2.882;2024-03-23T07:51:56;4.72;;;1.70;;
85293;SDS011;76388;43.958;2.882;2024-03-23T07:54:22;4.00;;;1.70;;
85293;SDS011;76388;43.958;2.882;2024-03-23T07:56:48;5.13;;;1.70;;
85293;SDS011;76388;43.958;2.882;2024-03-23T07:59:14;3.92;;;1.70;;
85293;SDS011;76388;43.958;2.882;2024-03-23T08:01:40;4.05;;;1.77;;
85293;SDS011;76388;43.958;2.882;2024-03-23T08:04:06;4.88;;;1.80;;
85293;SDS011;76388;43.958;2.882;2024-03-23T08:06:32;4.65;;;1.70;;
85293;SDS011;76388;43.958;2.882;2024-03-23T08:08:59;2.65;;;1.23;;
85293;SDS011;76388;43.958;2.882;2024-03-23T08:11:26;4.70;;;1.50;;
85293;SDS011;76388;43.958;2.882;2024-03-23T08:13:53;2.47;;;1.20;;
85293;SDS011;76388;43.958;2.882;2024-03-23T08:16:19;2.50;;;1.10;;
85293;SDS011;76388;43.958;2.882;2024-03-23T08:18:45;2.40;;;1.10;;
85293;SDS011;76388;43.958;2.882;2024-03-23T08:21:11;2.13;;;0.88;;
85293;SDS011;76388;43.958;2.882;2024-03-23T08:23:37;1.92;;;0.80;;
85293;SDS011;76388;43.958;2.882;2024-03-23T08:26:09;1.25;;;0.90;;
85293;SDS011;76388;43.958;2.882;2024-03-23T08:28:38;1.13;;;0.90;;
85293;SDS011;76388;43.958;2.882;2024-03-23T08:31:05;2.60;;;1.02;;
85293;SDS011;76388;43.958;2.882;2024-03-23T08:33:32;1.95;;;1.00;;
85293;SDS011;76388;43.958;2.882;2024-03-23T08:35:59;1.45;;;0.85;;
85293;SDS011;76388;43.958;2.882;2024-03-23T08:38:27;2.20;;;1.00;;
85293;SDS011;76388;43.958;2.882;2024-03-23T08:43:24;3.47;;;1.55;;
85293;SDS011;76388;43.958;2.882;2024-03-23T08:45:50;3.70;;;1.65;;
85293;SDS011;76388;43.958;2.882;2024-03-23T08:48:17;3.20;;;1.30;;
85293;SDS011;76388;43.958;2.882;2024-03-23T08:50:46;2.47;;;1.20;;
85293;SDS011;76388;43.958;2.882;2024-03-23T08:53:12;3.22;;;1.00;;
85293;SDS011;76388;43.958;2.882;2024-03-23T08:55:40;2.83;;;1.23;;
85293;SDS011;76388;43.958;2.882;2024-03-23T08:58:06;1.77;;;0.93;;
85293;SDS011;76388;43.958;2.882;2024-03-23T09:00:34;2.78;;;1.02;;
85293;SDS011;76388;43.958;2.882;2024-03-23T09:03:00;1.90;;;0.98;;
85293;SDS011;76388;43.958;2.882;2024-03-23T09:05:28;1.65;;;0.90;;
85293;SDS011;76388;43.958;2.882;2024-03-23T09:07:56;3.55;;;1.10;;
85293;SDS011;76388;43.958;2.882;2024-03-23T09:10:22;3.50;;;1.20;;
85293;SDS011;76388;43.958;2.882;2024-03-23T09:12:48;3.10;;;1.20;;
85293;SDS011;76388;43.958;2.882;2024-03-23T09:15:14;1.48;;;1.00;;
85293;SDS011;76388;43.958;2.882;2024-03-23T09:17:41;3.95;;;1.42;;
85293;SDS011;76388;43.958;2.882;2024-03-23T09:20:07;3.45;;;1.20;;
85293;SDS011;76388;43.958;2.882;2024-03-23T09:22:34;3.50;;;1.20;;
85293;SDS011;76388;43.958;2.882;2024-03-23T09:25:00;2.45;;;1.02;;
85293;SDS011;76388;43.958;2.882;2024-03-23T09:27:26;2.55;;;1.23;;
85293;SDS011;76388;43.958;2.882;2024-03-23T09:29:52;3.75;;;1.10;;
85293;SDS011;76388;43.958;2.882;2024-03-23T09:32:18;3.15;;;1.20;;
85293;SDS011;76388;43.958;2.882;2024-03-23T09:34:45;2.97;;;1.20;;
85293;SDS011;76388;43.958;2.882;2024-03-23T09:37:11;3.75;;;1.13;;
85293;SDS011;76388;43.958;2.882;2024-03-23T09:39:37;3.03;;;0.90;;
85293;SDS011;76388;43.958;2.882;2024-03-23T09:42:03;2.22;;;0.95;;
85293;SDS011;76388;43.958;2.882;2024-03-23T09:44:30;1.70;;;0.88;;
85293;SDS011;76388;43.958;2.882;2024-03-23T09:46:56;2.75;;;1.13;;
85293;SDS011;76388;43.958;2.882;2024-03-23T09:49:22;1.90;;;1.00;;
85293;SDS011;76388;43.958;2.882;2024-03-23T09:51:49;1.85;;;0.88;;
85293;SDS011;76388;43.958;2.882;2024-03-23T09:54:15;3.08;;;1.05;;
85293;SDS011;76388;43.958;2.882;2024-03-23T09:56:41;3.55;;;1.00;;
85293;SDS011;76388;43.958;2.882;2024-03-23T09:59:07;2.78;;;1.00;;
85293;SDS011;76388;43.958;2.882;2024-03-23T10:01:34;3.63;;;1.10;;
85293;SDS011;76388;43.958;2.882;2024-03-23T10:04:00;2.70;;;1.10;;
85293;SDS011;76388;43.958;2.882;2024-03-23T10:06:26;2.65;;;1.17;;
85293;SDS011;76388;43.958;2.882;2024-03-23T10:08:52;2.80;;;1.15;;
85293;SDS011;76388;43.958;2.882;2024-03-23T10:11:19;3.35;;;1.17;;
85293;SDS011;76388;43.958;2.882;2024-03-23T10:13:46;3.15;;;1.10;;
85293;SDS011;76388;43.958;2.882;2024-03-23T10:16:20;3.88;;;1.20;;
85293;SDS011;76388;43.958;2.882;2024-03-23T10:18:47;4.40;;;1.25;;
85293;SDS011;76388;43.958;2.882;2024-03-23T10:21:14;2.25;;;0.90;;
85293;SDS011;76388;43.958;2.882;2024-03-23T10:23:42;5.68;;;1.10;;
85293;SDS011;76388;43.958;2.882;2024-03-23T10:26:13;1.75;;;0.90;;
85293;SDS011;76388;43.958;2.882;2024-03-23T10:29:05;3.13;;;0.90;;
85293;SDS011;76388;43.958;2.882;2024-03-23T10:31:28;4.55;;;0.90;;
85293;SDS011;76388;43.958;2.882;2024-03-23T10:33:55;2.10;;;0.93;;
85293;SDS011;76388;43.958;2.882;2024-03-23T10:36:22;3.75;;;1.05;;
85293;SDS011;76388;43.958;2.882;2024-03-23T10:38:49;3.45;;;0.95;;
85293;SDS011;76388;43.958;2.882;2024-03-23T10:41:16;5.25;;;1.08;;
85293;SDS011;76388;43.958;2.882;2024-03-23T10:43:42;3.60;;;1.10;;
85293;SDS011;76388;43.958;2.882;2024-03-23T10:46:10;1.88;;;0.80;;
85293;SDS011;76388;43.958;2.882;2024-03-23T10:48:36;2.55;;;0.90;;
85293;SDS011;76388;43.958;2.882;2024-03-23T10:51:03;8.15;;;1.45;;
85293;SDS011;76388;43.958;2.882;2024-03-23T10:53:30;3.65;;;1.15;;
85293;SDS011;76388;43.958;2.882;2024-03-23T10:55:57;3.55;;;1.02;;
85293;SDS011;76388;43.958;2.882;2024-03-23T10:58:28;2.75;;;1.02;;
85293;SDS011;76388;43.958;2.882;2024-03-23T11:00:58;3.13;;;0.80;;
85293;SDS011;76388;43.958;2.882;2024-03-23T11:03:32;4.20;;;1.15;;
85293;SDS011;76388;43.958;2.882;2024-03-23T11:06:00;5.40;;;1.23;;
85293;SDS011;76388;43.958;2.882;2024-03-23T11:08:30;4.07;;;1.00;;
85293;SDS011;76388;43.958;2.882;2024-03-23T11:13:39;3.28;;;1.00;;
85293;SDS011;76388;43.958;2.882;2024-03-23T11:16:14;4.15;;;1.63;;
85293;SDS011;76388;43.958;2.882;2024-03-23T11:18:41;3.97;;;1.10;;
85293;SDS011;76388;43.958;2.882;2024-03-23T11:21:09;5.72;;;1.30;;
85293;SDS011;76388;43.958;2.882;2024-03-23T11:23:35;3.40;;;1.10;;
85293;SDS011;76388;43.958;2.882;2024-03-23T11:26:01;3.28;;;1.05;;
85293;SDS011;76388;43.958;2.882;2024-03-23T11:28:28;4.30;;;1.13;;
85293;SDS011;76388;43.958;2.882;2024-03-23T11:30:54;5.90;;;1.10;;
85293;SDS011;76388;43.958;2.882;2024-03-23T11:33:20;6.28;;;1.33;;
85293;SDS011;76388;43.958;2.882;2024-03-23T11:35:46;3.85;;;1.10;;
85293;SDS011;76388;43.958;2.882;2024-03-23T11:40:41;5.93;;;1.20;;
85293;SDS011;76388;43.958;2.882;2024-03-23T11:43:09;5.07;;;1.13;;
85293;SDS011;76388;43.958;2.882;2024-03-23T11:45:38;3.47;;;1.00;;
85293;SDS011;76388;43.958;2.882;2024-03-23T11:50:38;4.22;;;1.13;;
85293;SDS011;76388;43.958;2.882;2024-03-23T11:55:43;3.40;;;0.93;;
85293;SDS011;76388;43.958;2.882;2024-03-23T11:58:10;4.68;;;1.05;;
85293;SDS011;76388;43.958;2.882;2024-03-23T12:00:37;4.40;;;0.90;;
85293;SDS011;76388;43.958;2.882;2024-03-23T12:03:04;3.63;;;1.00;;
85293;SDS011;76388;43.958;2.882;2024-03-23T12:05:31;5.65;;;1.50;;
85293;SDS011;76388;43.958;2.882;2024-03-23T12:08:18;3.85;;;1.20;;
85293;SDS011;76388;43.958;2.882;2024-03-23T12:10:44;5.22;;;1.15;;
85293;SDS011;76388;43.958;2.882;2024-03-23T12:13:14;5.53;;;1.33;;
85293;SDS011;76388;43.958;2.882;2024-03-23T12:15:42;5.40;;;1.15;;
85293;SDS011;76388;43.958;2.882;2024-03-23T12:18:09;6.63;;;1.15;;
85293;SDS011;76388;43.958;2.882;2024-03-23T12:20:35;6.13;;;1.30;;
85293;SDS011;76388;43.958;2.882;2024-03-23T12:23:09;4.78;;;1.15;;
85293;SDS011;76388;43.958;2.882;2024-03-23T12:25:37;7.93;;;1.42;;
85293;SDS011;76388;43.958;2.882;2024-03-23T12:28:04;6.43;;;1.27;;
85293;SDS011;76388;43.958;2.882;2024-03-23T12:30:38;5.00;;;1.10;;
85293;SDS011;76388;43.958;2.882;2024-03-23T12:33:05;3.72;;;1.20;;
85293;SDS011;76388;43.958;2.882;2024-03-23T12:35:31;5.63;;;1.20;;
85293;SDS011;76388;43.958;2.882;2024-03-23T12:37:58;5.72;;;1.30;;
85293;SDS011;76388;43.958;2.882;2024-03-23T12:40:24;4.90;;;1.40;;
85293;SDS011;76388;43.958;2.882;2024-03-23T12:42:52;6.95;;;1.40;;
85293;SDS011;76388;43.958;2.882;2024-03-23T12:45:18;5.30;;;1.20;;
85293;SDS011;76388;43.958;2.882;2024-03-23T12:47:44;4.15;;;1.20;;
85293;SDS011;76388;43.958;2.882;2024-03-23T12:50:10;6.28;;;1.52;;
85293;SDS011;76388;43.958;2.882;2024-03-23T12:52:36;6.28;;;1.23;;
85293;SDS011;76388;43.958;2.882;2024-03-23T12:55:03;6.53;;;1.27;;
85293;SDS011;76388;43.958;2.882;2024-03-23T12:57:31;5.60;;;1.15;;
85293;SDS011;76388;43.958;2.882;2024-03-23T12:59:58;6.60;;;1.20;;
85293;SDS011;76388;43.958;2.882;2024-03-23T13:02:25;6.72;;;1.23;;
85293;SDS011;76388;43.958;2.882;2024-03-23T13:04:52;3.03;;;1.00;;
85293;SDS011;76388;43.958;2.882;2024-03-23T13:07:19;3.70;;;0.90;;
85293;SDS011;76388;43.958;2.882;2024-03-23T13:09:46;5.18;;;1.33;;
85293;SDS011;76388;43.958;2.882;2024-03-23T13:12:12;4.97;;;1.27;;
85293;SDS011;76388;43.958;2.882;2024-03-23T13:14:38;4.10;;;1.23;;
85293;SDS011;76388;43.958;2.882;2024-03-23T13:17:05;6.75;;;1.00;;
85293;SDS011;76388;43.958;2.882;2024-03-23T13:19:31;6.78;;;1.30;;
85293;SDS011;76388;43.958;2.882;2024-03-23T13:21:58;3.63;;;1.00;;
85293;SDS011;76388;43.958;2.882;2024-03-23T13:24:25;4.30;;;1.05;;
85293;SDS011;76388;43.958;2.882;2024-03-23T13:26:53;7.40;;;1.25;;
85293;SDS011;76388;43.958;2.882;2024-03-23T13:29:20;5.18;;;0.90;;
85293;SDS011;76388;43.958;2.882;2024-03-23T13:31:47;2.75;;;1.10;;
85293;SDS011;76388;43.958;2.882;2024-03-23T13:34:14;4.82;;;1.10;;
85293;SDS011;76388;43.958;2.882;2024-03-23T13:36:44;5.82;;;1.17;;
85293;SDS011;76388;43.958;2.882;2024-03-23T13:39:11;4.80;;;0.85;;
85293;SDS011;76388;43.958;2.882;2024-03-23T13:41:40;5.03;;;1.33;;
85293;SDS011;76388;43.958;2.882;2024-03-23T13:44:07;3.53;;;0.80;;
85293;SDS011;76388;43.958;2.882;2024-03-23T13:46:35;6.18;;;1.00;;
85293;SDS011;76388;43.958;2.882;2024-03-23T13:49:02;5.15;;;1.00;;
85293;SDS011;76388;43.958;2.882;2024-03-23T13:51:28;3.75;;;1.10;;
85293;SDS011;76388;43.958;2.882;2024-03-23T13:53:55;6.38;;;1.30;;
85293;SDS011;76388;43.958;2.882;2024-03-23T13:56:22;5.65;;;1.20;;
85293;SDS011;76388;43.958;2.882;2024-03-23T13:58:49;5.90;;;1.00;;
85293;SDS011;76388;43.958;2.882;2024-03-23T14:01:15;4.25;;;1.15;;
85293;SDS011;76388;43.958;2.882;2024-03-23T14:03:42;3.72;;;0.93;;
85293;SDS011;76388;43.958;2.882;2024-03-23T14:06:08;3.05;;;0.93;;
85293;SDS011;76388;43.958;2.882;2024-03-23T14:08:35;4.32;;;0.95;;
85293;SDS011;76388;43.958;2.882;2024-03-23T14:11:05;5.18;;;1.10;;
85293;SDS011;76388;43.958;2.882;2024-03-23T14:13:32;5.35;;;1.00;;
85293;SDS011;76388;43.958;2.882;2024-03-23T14:15:58;3.00;;;0.80;;
85293;SDS011;76388;43.958;2.882;2024-03-23T14:18:24;3.80;;;1.00;;
85293;SDS011;76388;43.958;2.882;2024-03-23T14:20:51;3.65;;;1.00;;
85293;SDS011;76388;43.958;2.882;2024-03-23T14:23:18;3.67;;;0.98;;
85293;SDS011;76388;43.958;2.882;2024-03-23T14:25:44;2.55;;;0.70;;
85293;SDS011;76388;43.958;2.882;2024-03-23T14:28:11;4.53;;;1.10;;
85293;SDS011;76388;43.958;2.882;2024-03-23T14:30:41;3.88;;;1.00;;
85293;SDS011;76388;43.958;2.882;2024-03-23T14:33:08;4.05;;;1.10;;
85293;SDS011;76388;43.958;2.882;2024-03-23T14:35:34;3.13;;;0.90;;
85293;SDS011;76388;43.958;2.882;2024-03-23T14:38:01;5.05;;;1.10;;
85293;SDS011;76388;43.958;2.882;2024-03-23T14:40:27;3.85;;;1.10;;
85293;SDS011;76388;43.958;2.882;2024-03-23T14:42:54;5.07;;;1.10;;
85293;SDS011;76388;43.958;2.882;2024-03-23T14:45:20;3.78;;;0.95;;
85293;SDS011;76388;43.958;2.882;2024-03-23T14:47:47;5.30;;;1.10;;
85293;SDS011;76388;43.958;2.882;2024-03-23T14:50:13;4.07;;;0.88;;
85293;SDS011;76388;43.958;2.882;2024-03-23T14:52:45;4.22;;;0.90;;
85293;SDS011;76388;43.958;2.882;2024-03-23T14:55:11;2.72;;;0.82;;
85293;SDS011;76388;43.958;2.882;2024-03-23T14:57:38;3.47;;;0.93;;
85293;SDS011;76388;43.958;2.882;2024-03-23T15:00:07;2.90;;;0.93;;
85293;SDS011;76388;43.958;2.882;2024-03-23T15:02:36;6.43;;;1.20;;
85293;SDS011;76388;43.958;2.882;2024-03-23T15:05:02;4.13;;;0.98;;
85293;SDS011;76388;43.958;2.882;2024-03-23T15:07:31;2.55;;;0.90;;
85293;SDS011;76388;43.958;2.882;2024-03-23T15:09:57;7.07;;;1.00;;
85293;SDS011;76388;43.958;2.882;2024-03-23T15:12:23;4.57;;;0.80;;
85293;SDS011;76388;43.958;2.882;2024-03-23T15:14:49;6.30;;;1.30;;
85293;SDS011;76388;43.958;2.882;2024-03-23T15:17:15;6.13;;;1.35;;
85293;SDS011;76388;43.958;2.882;2024-03-23T15:19:42;3.40;;;0.90;;
85293;SDS011;76388;43.958;2.882;2024-03-23T15:22:08;5.00;;;1.20;;
85293;SDS011;76388;43.958;2.882;2024-03-23T15:24:35;4.35;;;0.90;;
85293;SDS011;76388;43.958;2.882;2024-03-23T15:27:02;3.47;;;1.00;;
85293;SDS011;76388;43.958;2.882;2024-03-23T15:29:28;3.50;;;0.90;;
85293;SDS011;76388;43.958;2.882;2024-03-23T15:31:55;5.90;;;1.10;;
85293;SDS011;76388;43.958;2.882;2024-03-23T15:34:22;3.17;;;0.90;;
85293;SDS011;76388;43.958;2.882;2024-03-23T15:36:48;4.03;;;1.30;;
85293;SDS011;76388;43.958;2.882;2024-03-23T15:39:17;4.47;;;1.10;;
85293;SDS011;76388;43.958;2.882;2024-03-23T15:41:44;5.07;;;1.13;;
85293;SDS011;76388;43.958;2.882;2024-03-23T15:44:11;3.30;;;0.85;;
85293;SDS011;76388;43.958;2.882;2024-03-23T15:46:37;2.60;;;0.95;;
85293;SDS011;76388;43.958;2.882;2024-03-23T15:49:04;2.95;;;0.90;;
85293;SDS011;76388;43.958;2.882;2024-03-23T15:51:30;3.38;;;1.00;;
85293;SDS011;76388;43.958;2.882;2024-03-23T15:53:59;5.10;;;1.00;;